METAR Analyzer

一覧表示

Hello, Guest. (Login)

RJFF/FUK  -  福岡

観測日時
2021-08-05 01:42 (UTC) (29分前)
気温
34
露点
25
湿数
9
相対湿度
59.5%
QNH
1006.1hPa
推定現地気圧
1005.0hPa
推定海面気圧
1006.0hPa
体感温度
29.6
(無風時)
30.4
HI
42
気温前日比
データなし
体感温度前日比
データなし
HI前日比
データなし
水平視程
>10000m
鉛直視程
データなし
雲底高度
No dense clouds
V/I
VMC (VFR)
RVR
No RVR data
卓越風
3kt from VRB
ガスト
No gust
降水
報告なし
その他の天気
報告なし
少しの(1/8) 積雲 @ 2000ft AGL

RJFF 050142Z VRB03KT 9999 FEW020 34/25 Q1006 RMK 1CU020 A2971

RJFR/KKJ  -  北九州

観測日時
2021-08-05 01:00 (UTC) (71分前)
気温
29
露点
25
湿数
4
相対湿度
79.1%
QNH
1007hPa
推定現地気圧
1006.3hPa
推定海面気圧
1007.0hPa
体感温度
24.2
(無風時)
28.2
HI
34.5
気温前日比
±0
体感温度前日比
+0.3
HI前日比
+0.9
水平視程
>10000m
鉛直視程
データなし
雲底高度
No dense clouds
V/I
VMC (VFR)
RVR
No RVR data
卓越風
10kt from 100°
ガスト
No gust
降水
報告なし
その他の天気
報告なし
少しの雲 @ 1500ft AGL

RJFR 050100Z 10010KT 9999 FEW015 29/25 Q1007

RJFA  -  芦屋基地

観測日時
2021-08-05 01:00 (UTC) (71分前)
気温
32
露点
22
湿数
10
相対湿度
55.6%
QNH
1006.4hPa
推定現地気圧
1002.8hPa
推定海面気圧
1006.2hPa
体感温度
26.5
(無風時)
28.6
HI
35.8
気温前日比
+1
体感温度前日比
+0.6
HI前日比
+0.3
水平視程
>10000m
鉛直視程
データなし
雲底高度
No dense clouds
V/I
VMC (VFR)
RVR
No RVR data
卓越風
7kt from 130°
ガスト
No gust
降水
報告なし
その他の天気
報告なし
少しの(1/8) 積雲 @ 2000ft AGL

RJFA 050100Z 13007KT 9999 FEW020 32/22 Q1006 RMK 1CU020 A2972

RJFZ  -  築城基地

観測日時
2021-08-05 01:00 (UTC) (71分前)
気温
30
露点
25
湿数
5
相対湿度
74.6%
QNH
1007.1hPa
推定現地気圧
1005.1hPa
推定海面気圧
1007.0hPa
体感温度
25.6
(無風時)
28.7
HI
36.2
気温前日比
-1
体感温度前日比
-0.9
HI前日比
-1.5
水平視程
>10000m
鉛直視程
データなし
雲底高度
No dense clouds
V/I
VMC (VFR)
RVR
No RVR data
卓越風
7kt from 80°
ガスト
No gust
降水
報告なし
その他の天気
報告なし
少しの(1/8) 積雲 @ 1500ft AGL

RJFZ 050100Z 08007KT 9999 FEW015 30/25 Q1007 RMK 1CU015 A2974

RJFS/HSG  -  佐賀

観測日時
2021-08-05 01:00 (UTC) (71分前)
気温
30
露点
25
湿数
5
相対湿度
74.6%
QNH
1006hPa
推定現地気圧
1005.8hPa
推定海面気圧
1006.0hPa
体感温度
26.2
(無風時)
28.7
HI
36.2
気温前日比
-1
体感温度前日比
-0.5
HI前日比
+0.7
水平視程
>10000m
鉛直視程
データなし
雲底高度
No dense clouds
V/I
VMC (VFR)
RVR
No RVR data
卓越風
4kt from 180° (130° ~ 210°)
ガスト
No gust
降水
報告なし
その他の天気
報告なし
少しの雲 @ 3000ft AGL

RJFS 050100Z 18004KT 130V210 9999 FEW030 30/25 Q1006

RJFU/NGS  -  長崎

観測日時
2021-08-05 01:00 (UTC) (71分前)
気温
33
露点
23
湿数
10
相対湿度
55.8%
QNH
1006hPa
推定現地気圧
1005.8hPa
推定海面気圧
1006.0hPa
体感温度
28.2
(無風時)
29.4
HI
38.1
気温前日比
+1
体感温度前日比
+0.7
HI前日比
-1.1
水平視程
>10000m
鉛直視程
データなし
雲底高度
No dense clouds
V/I
VMC (VFR)
RVR
No RVR data
卓越風
3kt from 260°
ガスト
No gust
降水
報告なし
その他の天気
報告なし
少しの雲 @ 2000ft AGL / 散在する雲 @ 3000ft AGL

RJFU 050100Z 26003KT 9999 FEW020 SCT030 33/23 Q1006

RJFE/FUJ  -  福江

観測日時
2021-08-05 02:00 (UTC) (11分前)
気温
32
露点
24
湿数
8
相対湿度
62.7%
QNH
1006hPa
推定現地気圧
996.8hPa
推定海面気圧
1005.4hPa
体感温度
27.2
(無風時)
29.2
HI
37.9
気温前日比
+1
体感温度前日比
+0.3
HI前日比
-2.7
水平視程
>10000m
鉛直視程
データなし
雲底高度
Unknown
V/I
判定不可
RVR
No RVR data
卓越風
6kt from 160° (110° ~ 210°)
ガスト
No gust
降水
報告なし
その他の天気
報告なし
少しの雲 @ 2000ft AGL / 散在する雲 @ 4500ft AGL / 隙間のある雲 @ 不明な高さ

RJFE 050200Z 16006KT 110V210 9999 FEW020 SCT045 BKN/// 32/24 Q1006

RJDT/TSJ  -  対馬

観測日時
2021-08-05 01:00 (UTC) (71分前)
気温
31
露点
25
湿数
6
相対湿度
70.5%
QNH
1006.8hPa
推定現地気圧
999.3hPa
推定海面気圧
1006.4hPa
体感温度
26.4
(無風時)
29.1
HI
37.7
気温前日比
+1
体感温度前日比
+0.4
HI前日比
+1.5
水平視程
>10000m
鉛直視程
データなし
雲底高度
No dense clouds
V/I
VMC (VFR)
RVR
No RVR data
卓越風
8kt from 30° (360° ~ 70°)
ガスト
No gust
降水
報告なし
その他の天気
報告なし
少しの(2/8) 積雲 @ 1500ft AGL

RJDT 050100Z 03008KT 360V070 9999 FEW015 31/25 Q1006 RMK 2CU015 A2973

RJDB/IKI  -  壱岐